createdAt,value
2023-10-23T00:02:40.904Z,96815.59
2023-10-23T00:06:41.366Z,96815.09
2023-10-23T00:10:42.440Z,96824.16
2023-10-23T00:14:42.899Z,96824.25
2023-10-23T00:18:45.815Z,96817.78
2023-10-23T00:22:46.144Z,96825.78
2023-10-23T00:26:46.364Z,96823.03
2023-10-23T00:30:48.414Z,96823.25
2023-10-23T00:34:51.450Z,96824.09
2023-10-23T00:38:51.810Z,96825.03
2023-10-23T00:42:52.237Z,96822.28
2023-10-23T00:46:53.923Z,96819.25
2023-10-23T00:51:02.312Z,96828.84
2023-10-23T00:55:03.977Z,96825.88
2023-10-23T00:59:04.946Z,96823.66
2023-10-23T01:03:06.261Z,96832.19
2023-10-23T01:07:09.439Z,96819.53
2023-10-23T01:11:09.945Z,96827.59
2023-10-23T01:15:11.960Z,96842.97
2023-10-23T01:19:12.217Z,96843.16
2023-10-23T01:23:15.640Z,96840.72
2023-10-23T01:27:18.560Z,96831.84
2023-10-23T01:31:20.031Z,96831.75
2023-10-23T01:35:23.200Z,96840.00
2023-10-23T01:39:24.988Z,96849.84
2023-10-23T01:43:27.933Z,96844.28
2023-10-23T01:47:31.638Z,96839.88
2023-10-23T01:51:31.926Z,96830.88
2023-10-23T01:55:32.149Z,96843.13
2023-10-23T01:59:35.015Z,96829.75
2023-10-23T02:03:35.646Z,96843.69
2023-10-23T02:07:36.113Z,96835.44
2023-10-23T02:11:37.162Z,96829.41
2023-10-23T02:15:40.675Z,96832.38
2023-10-23T02:19:40.953Z,96842.22
2023-10-23T02:23:55.742Z,96841.47
2023-10-23T02:27:57.410Z,96842.75
2023-10-23T02:32:03.881Z,96847.66
2023-10-23T02:36:04.162Z,96850.94
2023-10-23T02:40:05.159Z,96844.34
2023-10-23T02:44:05.501Z,96852.72
2023-10-23T02:48:09.199Z,96855.31
2023-10-23T02:52:10.151Z,96843.06
2023-10-23T02:56:14.614Z,96860.31
2023-10-23T03:00:17.352Z,96871.53
2023-10-23T03:04:20.385Z,96870.72
2023-10-23T03:08:20.648Z,96872.00
2023-10-23T03:12:21.228Z,96883.16
2023-10-23T03:16:21.593Z,96882.97
2023-10-23T03:20:26.972Z,96887.09
2023-10-23T03:24:27.484Z,96881.66
2023-10-23T03:28:27.892Z,96882.66
2023-10-23T03:32:28.149Z,96881.47
2023-10-23T03:36:31.441Z,96888.41
2023-10-23T03:40:32.320Z,96881.13
2023-10-23T03:44:32.586Z,96888.41
2023-10-23T03:48:32.841Z,96894.22
2023-10-23T03:52:36.352Z,96891.34
2023-10-23T03:56:37.217Z,96888.09
2023-10-23T04:00:37.657Z,96869.09
2023-10-23T04:04:38.072Z,96880.44
2023-10-23T04:08:41.092Z,96881.28
2023-10-23T04:12:41.520Z,96878.69
2023-10-23T04:16:41.779Z,96886.59
2023-10-23T04:20:42.188Z,96897.72
2023-10-23T04:24:45.306Z,96900.75
2023-10-23T04:28:45.892Z,96895.50
2023-10-23T04:32:46.219Z,96887.03
2023-10-23T04:36:46.521Z,96873.03
2023-10-23T04:40:51.556Z,96879.16
2023-10-23T04:44:52.089Z,96890.66
2023-10-23T04:48:52.423Z,96890.69
2023-10-23T04:52:52.796Z,96897.78
2023-10-23T04:56:55.634Z,96901.63
2023-10-23T05:00:56.727Z,96887.84
2023-10-23T05:04:57.030Z,96889.88
2023-10-23T05:08:57.846Z,96887.44
2023-10-23T05:13:00.809Z,96892.69
2023-10-23T05:17:05.289Z,96858.28
2023-10-23T05:21:11.279Z,96850.78
2023-10-23T05:25:15.516Z,96879.47
2023-10-23T05:29:18.339Z,96896.28
2023-10-23T05:33:18.769Z,96881.22
2023-10-23T05:37:20.223Z,96897.31
2023-10-23T05:41:20.867Z,96879.78
2023-10-23T05:45:23.754Z,96904.28
2023-10-23T05:49:24.327Z,96911.81
2023-10-23T05:53:24.734Z,96918.97
2023-10-23T05:57:25.214Z,96910.41
2023-10-23T06:01:28.219Z,96914.91
2023-10-23T06:05:28.525Z,96918.09
2023-10-23T06:09:31.252Z,96922.13
2023-10-23T06:13:31.916Z,96922.53
2023-10-23T06:17:34.859Z,96921.31
2023-10-23T06:21:35.330Z,96917.47
2023-10-23T06:25:35.806Z,96922.31
2023-10-23T06:29:36.349Z,96926.34
2023-10-23T06:33:40.374Z,96915.09
2023-10-23T06:37:40.669Z,96932.06
2023-10-23T06:41:40.939Z,96936.44
2023-10-23T06:46:00.452Z,96940.38
2023-10-23T06:50:06.362Z,96925.63
2023-10-23T06:54:07.945Z,96936.09
2023-10-23T06:58:08.199Z,96931.75
2023-10-23T07:02:08.923Z,96937.94
2023-10-23T07:06:12.202Z,96940.75
2023-10-23T07:10:13.731Z,96943.16
2023-10-23T07:14:14.096Z,96936.44
2023-10-23T07:18:14.764Z,96928.81
2023-10-23T07:22:17.830Z,96921.16
2023-10-23T07:26:18.398Z,96930.63
2023-10-23T07:30:19.086Z,96926.69
2023-10-23T07:34:20.361Z,96930.91
2023-10-23T07:38:23.194Z,96927.22
2023-10-23T07:42:23.553Z,96928.25
2023-10-23T07:46:23.983Z,96904.53
2023-10-23T07:50:25.972Z,96915.31
2023-10-23T07:54:28.966Z,96913.72
2023-10-23T07:58:29.470Z,96902.69
2023-10-23T08:02:29.914Z,96910.59
2023-10-23T08:06:30.720Z,96915.41
2023-10-23T08:10:34.116Z,96914.06
2023-10-23T08:14:34.881Z,96911.13
2023-10-23T08:18:39.072Z,96911.31
2023-10-23T08:22:42.282Z,96904.72
2023-10-23T08:26:45.277Z,96920.41
2023-10-23T08:30:45.627Z,96900.47
2023-10-23T08:34:45.997Z,96884.75
2023-10-23T08:38:46.364Z,96878.59
2023-10-23T08:42:49.399Z,96865.59
2023-10-23T08:46:49.933Z,96865.53
2023-10-23T08:50:52.369Z,96846.94
2023-10-23T08:54:57.736Z,96859.84
2023-10-23T08:59:03.949Z,96861.97
2023-10-23T09:03:07.326Z,96868.38
2023-10-23T09:07:07.865Z,96865.56
2023-10-23T09:11:09.413Z,96871.44
2023-10-23T09:15:25.961Z,96862.91
2023-10-23T09:19:35.870Z,96854.25
2023-10-23T09:23:36.341Z,96854.25
2023-10-23T09:27:36.648Z,96858.00
2023-10-23T09:31:42.893Z,96837.00
2023-10-23T09:35:44.074Z,96843.97
2023-10-23T09:39:44.517Z,96836.38
2023-10-23T09:43:49.298Z,96829.13
2023-10-23T09:48:00.111Z,96829.13
2023-10-23T09:52:04.802Z,96834.88
2023-10-23T09:56:11.928Z,96844.19
2023-10-23T10:00:18.229Z,96844.59
2023-10-23T10:04:29.844Z,96816.75
2023-10-23T10:08:36.857Z,96793.97
2023-10-23T10:12:39.991Z,96816.00
2023-10-23T10:16:42.073Z,96811.06
2023-10-23T10:20:49.561Z,96814.88
2023-10-23T10:24:53.640Z,96805.84
2023-10-23T10:28:56.720Z,96812.75
2023-10-23T10:34:21.669Z,96796.31
2023-10-23T10:37:30.647Z,96794.72
2023-10-23T10:41:31.049Z,96789.41
2023-10-23T10:45:34.488Z,96781.59
2023-10-23T10:49:36.621Z,96786.50
2023-10-23T10:53:43.008Z,96774.78
2023-10-23T10:57:46.431Z,96750.44
2023-10-23T11:01:47.483Z,96759.31
2023-10-23T11:05:51.197Z,96746.38
2023-10-23T11:09:54.750Z,96727.50
2023-10-23T11:13:56.056Z,96730.38
2023-10-23T11:17:57.503Z,96728.22
2023-10-23T11:22:12.075Z,96723.03
2023-10-23T11:26:15.002Z,96724.84
2023-10-23T11:30:19.732Z,96726.78
2023-10-23T11:34:20.842Z,96735.41
2023-10-23T11:38:23.021Z,96734.13
2023-10-23T11:42:26.492Z,96715.16
2023-10-23T11:46:28.429Z,96699.25
2023-10-23T11:50:30.230Z,96711.81
2023-10-23T11:54:32.367Z,96698.22
2023-10-23T11:58:36.283Z,96702.97
2023-10-23T12:02:36.717Z,96695.81
2023-10-23T12:06:37.796Z,96695.59
2023-10-23T12:10:39.606Z,96685.63
2023-10-23T12:14:42.783Z,96674.56
2023-10-23T12:18:44.337Z,96671.72
2023-10-23T12:22:47.613Z,96673.34
2023-10-23T12:26:47.968Z,96667.56
2023-10-23T12:30:51.048Z,96657.38
2023-10-23T12:34:51.867Z,96639.84
2023-10-23T12:38:52.192Z,96634.22
2023-10-23T12:42:54.832Z,96631.81
2023-10-23T12:46:57.886Z,96625.25
2023-10-23T12:50:58.310Z,96621.56
2023-10-23T12:54:58.673Z,96623.47
2023-10-23T12:58:59.053Z,96616.06
2023-10-23T13:03:02.397Z,96600.94
2023-10-23T13:07:02.807Z,96600.13
2023-10-23T13:11:03.556Z,96606.13
2023-10-23T13:15:04.408Z,96600.16
2023-10-23T13:19:08.031Z,96605.69
2023-10-23T13:23:08.834Z,96589.25
2023-10-23T13:27:09.213Z,96588.34
2023-10-23T13:31:09.797Z,96580.38
2023-10-23T13:35:15.994Z,96584.63
2023-10-23T13:39:17.546Z,96583.19
2023-10-23T13:43:17.986Z,96569.59
2023-10-23T13:47:18.895Z,96566.69
2023-10-23T13:51:21.803Z,96559.56
2023-10-23T13:55:22.601Z,96545.16
2023-10-23T13:59:22.906Z,96533.56
2023-10-23T14:03:24.345Z,96544.94
2023-10-23T14:07:29.807Z,96545.66
2023-10-23T14:12:01.021Z,96544.19
2023-10-23T14:15:51.482Z,96536.44
2023-10-23T14:19:51.910Z,96531.38
2023-10-23T14:23:54.791Z,96529.84
2023-10-23T14:27:55.633Z,96537.91
2023-10-23T14:31:56.414Z,96506.28
2023-10-23T14:35:56.687Z,96522.44
2023-10-23T14:39:59.829Z,96533.56
2023-10-23T14:44:00.799Z,96517.78
2023-10-23T14:48:01.118Z,96493.91
2023-10-23T14:52:01.510Z,96506.03
2023-10-23T14:56:11.754Z,96481.56
2023-10-23T15:00:14.882Z,96485.94
2023-10-23T15:04:15.475Z,96489.94
2023-10-23T15:08:15.792Z,96485.78
2023-10-23T15:12:18.688Z,96467.63
2023-10-23T15:16:21.843Z,96466.44
2023-10-23T15:20:23.446Z,96459.44
2023-10-23T15:24:24.109Z,96443.72
2023-10-23T15:28:29.273Z,96424.97
2023-10-23T15:32:29.644Z,96445.38
2023-10-23T15:36:31.296Z,96445.69
2023-10-23T15:40:33.474Z,96426.22
2023-10-23T15:44:38.097Z,96416.66
2023-10-23T15:48:38.294Z,96423.66
2023-10-23T15:52:38.572Z,96430.72
2023-10-23T15:56:39.700Z,96433.88
2023-10-23T16:00:42.724Z,96421.31
2023-10-23T16:04:45.722Z,96408.63
2023-10-23T16:08:46.775Z,96422.72
2023-10-23T16:12:50.314Z,96407.06
2023-10-23T16:16:56.485Z,96396.28
2023-10-23T16:20:58.432Z,96406.47
2023-10-23T16:24:58.759Z,96398.00
2023-10-23T16:28:59.161Z,96413.50
2023-10-23T16:33:02.073Z,96415.19
2023-10-23T16:37:02.477Z,96427.03
2023-10-23T16:41:02.919Z,96410.47
2023-10-23T16:45:03.283Z,96411.00
2023-10-23T16:49:06.877Z,96395.78
2023-10-23T16:53:12.217Z,96408.00
2023-10-23T16:57:13.972Z,96396.69
2023-10-23T17:01:14.435Z,96394.38
2023-10-23T17:05:17.607Z,96386.38
2023-10-23T17:09:19.206Z,96348.06
2023-10-23T17:13:19.545Z,96372.34
2023-10-23T17:17:20.198Z,96375.53
2023-10-23T17:21:23.392Z,96366.47
2023-10-23T17:25:23.917Z,96364.91
2023-10-23T17:29:24.317Z,96363.03
2023-10-23T17:33:26.400Z,96361.97
2023-10-23T17:37:29.691Z,96369.94
2023-10-23T17:41:31.770Z,96365.41
2023-10-23T17:45:32.264Z,96349.16
2023-10-23T17:49:32.650Z,96340.91
2023-10-23T17:53:38.378Z,96325.13
2023-10-23T17:57:40.523Z,96338.19
2023-10-23T18:01:46.266Z,96327.53
2023-10-23T18:05:47.492Z,96322.97
2023-10-23T18:09:50.605Z,96299.81
2023-10-23T18:13:50.834Z,96329.63
2023-10-23T18:17:53.709Z,96316.59
2023-10-23T18:21:54.327Z,96309.59
2023-10-23T18:26:02.866Z,96312.56
2023-10-23T18:30:03.847Z,96257.06
2023-10-23T18:34:25.426Z,96322.69
2023-10-23T18:38:40.198Z,96316.31
2023-10-23T18:43:17.855Z,96199.03
2023-10-23T18:47:24.820Z,96281.13
2023-10-23T18:51:40.976Z,96257.06
2023-10-23T18:56:08.982Z,96247.63
2023-10-23T19:00:23.100Z,96257.06
2023-10-23T19:04:30.995Z,96268.25
2023-10-23T19:08:44.062Z,96297.50
2023-10-23T19:12:47.600Z,96279.13
2023-10-23T19:16:55.542Z,96298.00
2023-10-23T19:21:17.319Z,96273.69
2023-10-23T19:25:23.156Z,96283.03
2023-10-23T19:29:35.548Z,96200.84
2023-10-23T19:33:59.156Z,96196.81
2023-10-23T19:38:11.696Z,96233.03
2023-10-23T19:42:33.354Z,96273.88
2023-10-23T19:46:50.273Z,96281.84
2023-10-23T19:51:13.975Z,96212.53
2023-10-23T19:55:42.679Z,96284.03
2023-10-23T20:00:03.957Z,96202.94
2023-10-23T20:04:27.555Z,96240.63
2023-10-23T20:08:40.953Z,96244.31
2023-10-23T20:12:58.089Z,96278.81
2023-10-23T20:17:17.120Z,96261.50
2023-10-23T20:21:20.409Z,96295.09
2023-10-23T20:25:28.077Z,96306.00
2023-10-23T20:29:29.974Z,96260.22
2023-10-23T20:33:36.855Z,96191.22
2023-10-23T20:37:38.822Z,96320.25
2023-10-23T20:41:41.920Z,96307.75
2023-10-23T20:45:42.791Z,96293.19
2023-10-23T20:49:43.328Z,96321.94
2023-10-23T20:53:43.859Z,96311.66
2023-10-23T20:57:46.772Z,96298.81
2023-10-23T21:01:47.135Z,96304.38
2023-10-23T21:05:49.525Z,96307.97
2023-10-23T21:09:51.693Z,96301.31
2023-10-23T21:13:56.919Z,96291.47
2023-10-23T21:17:57.323Z,96288.56
2023-10-23T21:22:00.501Z,96271.81
2023-10-23T21:26:05.085Z,96264.59
2023-10-23T21:30:10.210Z,96285.13
2023-10-23T21:34:11.197Z,96281.38
2023-10-23T21:38:11.663Z,96273.38
2023-10-23T21:42:12.205Z,96272.91
2023-10-23T21:46:17.401Z,96267.81
2023-10-23T21:50:20.942Z,96263.03
2023-10-23T21:54:22.149Z,96257.72
2023-10-23T21:58:23.435Z,96256.09
2023-10-23T22:02:27.270Z,96258.22
2023-10-23T22:06:28.472Z,96245.31
2023-10-23T22:10:30.241Z,96252.25
2023-10-23T22:14:32.262Z,96257.53
2023-10-23T22:18:37.106Z,96263.31
2023-10-23T22:22:37.569Z,96255.31
2023-10-23T22:26:38.033Z,96247.31
2023-10-23T22:30:38.454Z,96244.09
2023-10-23T22:34:41.686Z,96240.75
2023-10-23T22:38:42.071Z,96256.88
2023-10-23T22:42:42.478Z,96235.03
2023-10-23T22:46:42.837Z,96235.56
2023-10-23T22:50:47.913Z,96228.41
2023-10-23T22:54:49.075Z,96231.38
2023-10-23T22:58:50.323Z,96235.09
2023-10-23T23:02:51.745Z,96247.38
2023-10-23T23:06:56.678Z,96231.09
2023-10-23T23:11:00.795Z,96236.13
2023-10-23T23:15:02.034Z,96272.84
2023-10-23T23:19:06.963Z,96289.31
2023-10-23T23:23:09.908Z,96285.56
2023-10-23T23:27:10.216Z,96289.72
2023-10-23T23:31:10.630Z,96294.53
2023-10-23T23:35:12.101Z,96293.94
2023-10-23T23:39:14.966Z,96289.22
2023-10-23T23:43:15.265Z,96296.06
2023-10-23T23:47:15.490Z,96290.88
2023-10-23T23:51:16.212Z,96253.97
2023-10-23T23:55:19.229Z,96240.19
2023-10-23T23:59:19.502Z,96234.13
